sensor_id;sensor_type;location;lat;lon;timestamp;temperature;humidity
316;DHT22;14128;48.686;9.738;2022-07-10T00:02:20;15.20;1.40
316;DHT22;14128;48.686;9.738;2022-07-10T00:04:47;15.10;1.40
316;DHT22;14128;48.686;9.738;2022-07-10T00:07:13;15.00;1.40
316;DHT22;14128;48.686;9.738;2022-07-10T00:09:40;14.90;1.40
316;DHT22;14128;48.686;9.738;2022-07-10T00:12:07;14.90;1.40
316;DHT22;14128;48.686;9.738;2022-07-10T00:14:35;14.90;1.40
316;DHT22;14128;48.686;9.738;2022-07-10T00:17:03;14.90;1.40
316;DHT22;14128;48.686;9.738;2022-07-10T00:19:29;15.00;1.40
316;DHT22;14128;48.686;9.738;2022-07-10T00:21:56;15.00;1.40
316;DHT22;14128;48.686;9.738;2022-07-10T00:24:23;15.00;1.40
316;DHT22;14128;48.686;9.738;2022-07-10T00:26:50;15.00;1.40
316;DHT22;14128;48.686;9.738;2022-07-10T00:29:17;15.00;1.40
316;DHT22;14128;48.686;9.738;2022-07-10T00:31:45;15.00;1.40
316;DHT22;14128;48.686;9.738;2022-07-10T00:34:13;15.00;1.40
316;DHT22;14128;48.686;9.738;2022-07-10T00:36:40;14.90;1.40
316;DHT22;14128;48.686;9.738;2022-07-10T00:39:06;14.80;1.40
316;DHT22;14128;48.686;9.738;2022-07-10T00:41:33;14.70;1.40
316;DHT22;14128;48.686;9.738;2022-07-10T00:44:01;14.70;1.40
316;DHT22;14128;48.686;9.738;2022-07-10T00:46:32;14.70;1.40
316;DHT22;14128;48.686;9.738;2022-07-10T00:49:00;14.60;1.40
316;DHT22;14128;48.686;9.738;2022-07-10T00:51:28;14.60;1.40
316;DHT22;14128;48.686;9.738;2022-07-10T00:53:57;14.70;1.40
316;DHT22;14128;48.686;9.738;2022-07-10T00:56:25;14.70;1.40
316;DHT22;14128;48.686;9.738;2022-07-10T00:58:52;14.70;1.40
316;DHT22;14128;48.686;9.738;2022-07-10T01:01:20;14.70;1.40
316;DHT22;14128;48.686;9.738;2022-07-10T01:03:49;14.70;1.40
316;DHT22;14128;48.686;9.738;2022-07-10T01:06:17;14.70;1.40
316;DHT22;14128;48.686;9.738;2022-07-10T01:08:45;14.80;1.40
316;DHT22;14128;48.686;9.738;2022-07-10T01:11:13;14.70;1.40
316;DHT22;14128;48.686;9.738;2022-07-10T01:13:40;14.80;1.40
316;DHT22;14128;48.686;9.738;2022-07-10T01:16:07;14.80;1.40
316;DHT22;14128;48.686;9.738;2022-07-10T01:18:34;14.90;1.40
316;DHT22;14128;48.686;9.738;2022-07-10T01:21:03;14.90;1.40
316;DHT22;14128;48.686;9.738;2022-07-10T01:23:30;14.90;1.40
316;DHT22;14128;48.686;9.738;2022-07-10T01:25:57;14.80;1.40
316;DHT22;14128;48.686;9.738;2022-07-10T01:28:25;14.80;1.40
316;DHT22;14128;48.686;9.738;2022-07-10T01:30:54;14.70;1.40
316;DHT22;14128;48.686;9.738;2022-07-10T01:33:22;14.60;1.40
316;DHT22;14128;48.686;9.738;2022-07-10T01:35:49;14.60;1.40
316;DHT22;14128;48.686;9.738;2022-07-10T01:38:17;14.60;1.40
316;DHT22;14128;48.686;9.738;2022-07-10T01:40:44;14.60;1.40
316;DHT22;14128;48.686;9.738;2022-07-10T01:43:11;14.50;1.40
316;DHT22;14128;48.686;9.738;2022-07-10T01:45:38;14.40;1.40
316;DHT22;14128;48.686;9.738;2022-07-10T01:48:05;14.30;1.40
316;DHT22;14128;48.686;9.738;2022-07-10T01:50:32;14.30;1.40
316;DHT22;14128;48.686;9.738;2022-07-10T01:52:59;14.20;1.40
316;DHT22;14128;48.686;9.738;2022-07-10T01:55:27;14.20;1.40
316;DHT22;14128;48.686;9.738;2022-07-10T01:57:54;14.30;1.40
316;DHT22;14128;48.686;9.738;2022-07-10T02:00:21;14.20;1.40
316;DHT22;14128;48.686;9.738;2022-07-10T02:02:49;14.10;1.40
316;DHT22;14128;48.686;9.738;2022-07-10T02:05:30;14.00;1.40
316;DHT22;14128;48.686;9.738;2022-07-10T02:07:57;13.80;1.40
316;DHT22;14128;48.686;9.738;2022-07-10T02:10:26;13.60;1.40
316;DHT22;14128;48.686;9.738;2022-07-10T02:12:53;13.50;1.40
316;DHT22;14128;48.686;9.738;2022-07-10T02:15:21;13.40;1.40
316;DHT22;14128;48.686;9.738;2022-07-10T02:17:48;13.30;1.40
316;DHT22;14128;48.686;9.738;2022-07-10T02:20:15;13.20;1.40
316;DHT22;14128;48.686;9.738;2022-07-10T02:22:42;13.10;1.40
316;DHT22;14128;48.686;9.738;2022-07-10T02:25:09;13.10;1.40
316;DHT22;14128;48.686;9.738;2022-07-10T02:27:37;13.20;1.40
316;DHT22;14128;48.686;9.738;2022-07-10T02:30:05;13.20;1.40
316;DHT22;14128;48.686;9.738;2022-07-10T02:32:32;13.20;1.40
316;DHT22;14128;48.686;9.738;2022-07-10T02:34:59;13.30;1.40
316;DHT22;14128;48.686;9.738;2022-07-10T02:37:26;13.40;1.40
316;DHT22;14128;48.686;9.738;2022-07-10T02:39:53;13.40;1.40
316;DHT22;14128;48.686;9.738;2022-07-10T02:42:20;13.40;1.40
316;DHT22;14128;48.686;9.738;2022-07-10T02:44:48;13.40;1.40
316;DHT22;14128;48.686;9.738;2022-07-10T02:47:15;13.60;1.40
316;DHT22;14128;48.686;9.738;2022-07-10T02:49:41;13.60;1.40
316;DHT22;14128;48.686;9.738;2022-07-10T02:52:08;13.60;1.40
316;DHT22;14128;48.686;9.738;2022-07-10T02:54:35;13.50;1.40
316;DHT22;14128;48.686;9.738;2022-07-10T02:57:03;13.40;1.40
316;DHT22;14128;48.686;9.738;2022-07-10T02:59:30;13.50;1.40
316;DHT22;14128;48.686;9.738;2022-07-10T03:01:58;13.70;1.40
316;DHT22;14128;48.686;9.738;2022-07-10T03:04:26;13.80;1.40
316;DHT22;14128;48.686;9.738;2022-07-10T03:06:53;13.80;1.40
316;DHT22;14128;48.686;9.738;2022-07-10T03:09:20;13.90;1.40
316;DHT22;14128;48.686;9.738;2022-07-10T03:11:47;13.90;1.40
316;DHT22;14128;48.686;9.738;2022-07-10T03:14:14;13.80;1.40
316;DHT22;14128;48.686;9.738;2022-07-10T03:16:42;13.80;1.40
316;DHT22;14128;48.686;9.738;2022-07-10T03:19:10;13.80;1.40
316;DHT22;14128;48.686;9.738;2022-07-10T03:21:38;13.80;1.40
316;DHT22;14128;48.686;9.738;2022-07-10T03:24:05;13.90;1.40
316;DHT22;14128;48.686;9.738;2022-07-10T03:26:32;13.90;1.40
316;DHT22;14128;48.686;9.738;2022-07-10T03:28:59;13.90;1.40
316;DHT22;14128;48.686;9.738;2022-07-10T03:31:26;13.90;1.40
316;DHT22;14128;48.686;9.738;2022-07-10T03:33:53;14.00;1.40
316;DHT22;14128;48.686;9.738;2022-07-10T03:36:21;13.90;1.40
316;DHT22;14128;48.686;9.738;2022-07-10T03:38:48;13.90;1.40
316;DHT22;14128;48.686;9.738;2022-07-10T03:41:14;13.80;1.40
316;DHT22;14128;48.686;9.738;2022-07-10T03:43:41;13.80;1.40
316;DHT22;14128;48.686;9.738;2022-07-10T03:46:08;13.80;1.40
316;DHT22;14128;48.686;9.738;2022-07-10T03:48:35;13.80;1.40
316;DHT22;14128;48.686;9.738;2022-07-10T03:51:02;13.70;1.40
316;DHT22;14128;48.686;9.738;2022-07-10T03:53:30;13.70;1.40
316;DHT22;14128;48.686;9.738;2022-07-10T03:55:57;13.70;1.40
316;DHT22;14128;48.686;9.738;2022-07-10T03:58:25;13.70;1.40
316;DHT22;14128;48.686;9.738;2022-07-10T04:00:51;13.70;1.40
316;DHT22;14128;48.686;9.738;2022-07-10T04:03:18;13.70;1.40
316;DHT22;14128;48.686;9.738;2022-07-10T04:05:45;13.70;1.40
316;DHT22;14128;48.686;9.738;2022-07-10T04:08:12;13.70;1.40
316;DHT22;14128;48.686;9.738;2022-07-10T04:10:40;13.70;1.40
316;DHT22;14128;48.686;9.738;2022-07-10T04:13:07;13.60;1.40
316;DHT22;14128;48.686;9.738;2022-07-10T04:15:34;13.60;1.40
316;DHT22;14128;48.686;9.738;2022-07-10T04:18:01;13.60;1.40
316;DHT22;14128;48.686;9.738;2022-07-10T04:20:28;13.60;1.40
316;DHT22;14128;48.686;9.738;2022-07-10T04:22:56;13.70;1.40
316;DHT22;14128;48.686;9.738;2022-07-10T04:25:23;13.60;1.40
316;DHT22;14128;48.686;9.738;2022-07-10T04:27:51;13.60;1.40
316;DHT22;14128;48.686;9.738;2022-07-10T04:30:18;13.70;1.40
316;DHT22;14128;48.686;9.738;2022-07-10T04:32:45;13.90;1.40
316;DHT22;14128;48.686;9.738;2022-07-10T04:35:12;14.00;1.40
316;DHT22;14128;48.686;9.738;2022-07-10T04:37:39;14.10;1.40
316;DHT22;14128;48.686;9.738;2022-07-10T04:40:07;14.20;1.40
316;DHT22;14128;48.686;9.738;2022-07-10T04:42:34;14.20;1.40
316;DHT22;14128;48.686;9.738;2022-07-10T04:45:03;14.30;1.40
316;DHT22;14128;48.686;9.738;2022-07-10T04:47:30;14.40;1.40
316;DHT22;14128;48.686;9.738;2022-07-10T04:49:56;14.50;1.40
316;DHT22;14128;48.686;9.738;2022-07-10T04:52:23;14.50;1.40
316;DHT22;14128;48.686;9.738;2022-07-10T04:54:50;14.60;1.40
316;DHT22;14128;48.686;9.738;2022-07-10T04:57:17;14.70;1.40
316;DHT22;14128;48.686;9.738;2022-07-10T04:59:44;14.80;1.40
316;DHT22;14128;48.686;9.738;2022-07-10T05:02:12;14.90;1.40
316;DHT22;14128;48.686;9.738;2022-07-10T05:04:39;15.10;1.40
316;DHT22;14128;48.686;9.738;2022-07-10T05:07:06;15.40;1.40
316;DHT22;14128;48.686;9.738;2022-07-10T05:09:33;15.50;1.40
316;DHT22;14128;48.686;9.738;2022-07-10T05:12:00;15.60;1.40
316;DHT22;14128;48.686;9.738;2022-07-10T05:14:27;15.80;1.40
316;DHT22;14128;48.686;9.738;2022-07-10T05:16:53;16.10;1.40
316;DHT22;14128;48.686;9.738;2022-07-10T05:19:22;16.30;1.40
316;DHT22;14128;48.686;9.738;2022-07-10T05:21:49;16.40;1.40
316;DHT22;14128;48.686;9.738;2022-07-10T05:24:16;16.60;1.40
316;DHT22;14128;48.686;9.738;2022-07-10T05:26:43;16.70;1.40
316;DHT22;14128;48.686;9.738;2022-07-10T05:29:09;16.60;1.40
316;DHT22;14128;48.686;9.738;2022-07-10T05:31:36;16.40;1.40
316;DHT22;14128;48.686;9.738;2022-07-10T05:34:03;16.20;1.40
316;DHT22;14128;48.686;9.738;2022-07-10T05:36:31;16.20;1.40
316;DHT22;14128;48.686;9.738;2022-07-10T05:38:58;16.20;1.40
316;DHT22;14128;48.686;9.738;2022-07-10T05:41:25;16.20;1.40
316;DHT22;14128;48.686;9.738;2022-07-10T05:43:52;16.10;1.40
316;DHT22;14128;48.686;9.738;2022-07-10T05:46:19;15.90;1.40
316;DHT22;14128;48.686;9.738;2022-07-10T05:48:46;15.80;1.40
316;DHT22;14128;48.686;9.738;2022-07-10T05:51:12;15.90;1.40
316;DHT22;14128;48.686;9.738;2022-07-10T05:53:40;16.00;1.40
316;DHT22;14128;48.686;9.738;2022-07-10T05:56:07;16.30;1.40
316;DHT22;14128;48.686;9.738;2022-07-10T05:58:34;16.70;1.40
316;DHT22;14128;48.686;9.738;2022-07-10T06:01:01;16.90;1.40
316;DHT22;14128;48.686;9.738;2022-07-10T06:03:28;16.70;1.40
316;DHT22;14128;48.686;9.738;2022-07-10T06:05:55;16.70;1.40
316;DHT22;14128;48.686;9.738;2022-07-10T06:08:22;16.70;1.40
316;DHT22;14128;48.686;9.738;2022-07-10T06:10:50;16.70;1.40
316;DHT22;14128;48.686;9.738;2022-07-10T06:13:17;16.70;1.40
316;DHT22;14128;48.686;9.738;2022-07-10T06:15:43;16.60;1.40
316;DHT22;14128;48.686;9.738;2022-07-10T06:18:10;16.40;1.40
316;DHT22;14128;48.686;9.738;2022-07-10T06:20:37;16.40;1.40
316;DHT22;14128;48.686;9.738;2022-07-10T06:23:04;16.30;1.40
316;DHT22;14128;48.686;9.738;2022-07-10T06:25:31;16.20;1.40
316;DHT22;14128;48.686;9.738;2022-07-10T06:27:59;16.20;1.40
316;DHT22;14128;48.686;9.738;2022-07-10T06:30:26;16.00;1.40
316;DHT22;14128;48.686;9.738;2022-07-10T06:32:53;16.00;1.40
316;DHT22;14128;48.686;9.738;2022-07-10T06:35:19;16.00;1.40
316;DHT22;14128;48.686;9.738;2022-07-10T06:37:46;16.10;1.40
316;DHT22;14128;48.686;9.738;2022-07-10T06:40:13;16.40;1.40
316;DHT22;14128;48.686;9.738;2022-07-10T06:42:40;16.70;1.40
316;DHT22;14128;48.686;9.738;2022-07-10T06:45:10;17.00;1.40
316;DHT22;14128;48.686;9.738;2022-07-10T06:47:36;17.30;1.40
316;DHT22;14128;48.686;9.738;2022-07-10T06:50:28;17.70;1.40
316;DHT22;14128;48.686;9.738;2022-07-10T06:52:56;18.00;1.40
316;DHT22;14128;48.686;9.738;2022-07-10T06:55:23;18.00;1.40
316;DHT22;14128;48.686;9.738;2022-07-10T06:57:50;17.80;1.40
316;DHT22;14128;48.686;9.738;2022-07-10T07:00:19;17.60;1.40
316;DHT22;14128;48.686;9.738;2022-07-10T07:02:45;17.50;1.40
316;DHT22;14128;48.686;9.738;2022-07-10T07:05:12;17.60;1.40
316;DHT22;14128;48.686;9.738;2022-07-10T07:07:39;17.60;1.40
316;DHT22;14128;48.686;9.738;2022-07-10T07:10:08;17.60;1.40
316;DHT22;14128;48.686;9.738;2022-07-10T07:12:34;17.90;1.40
316;DHT22;14128;48.686;9.738;2022-07-10T07:15:01;18.20;1.40
316;DHT22;14128;48.686;9.738;2022-07-10T07:17:30;18.40;1.40
316;DHT22;14128;48.686;9.738;2022-07-10T07:20:04;18.80;1.40
316;DHT22;14128;48.686;9.738;2022-07-10T07:22:48;19.20;1.40
316;DHT22;14128;48.686;9.738;2022-07-10T07:25:33;19.10;1.40
316;DHT22;14128;48.686;9.738;2022-07-10T07:27:59;18.90;1.40
316;DHT22;14128;48.686;9.738;2022-07-10T07:30:26;18.80;1.40
316;DHT22;14128;48.686;9.738;2022-07-10T07:32:54;18.60;1.40
316;DHT22;14128;48.686;9.738;2022-07-10T07:35:21;18.60;1.40
316;DHT22;14128;48.686;9.738;2022-07-10T07:37:50;18.60;1.40
316;DHT22;14128;48.686;9.738;2022-07-10T07:40:19;18.30;1.40
316;DHT22;14128;48.686;9.738;2022-07-10T07:42:48;18.00;1.40
316;DHT22;14128;48.686;9.738;2022-07-10T07:45:15;17.70;1.40
316;DHT22;14128;48.686;9.738;2022-07-10T07:47:45;17.80;1.40
316;DHT22;14128;48.686;9.738;2022-07-10T07:50:15;17.90;1.40
316;DHT22;14128;48.686;9.738;2022-07-10T07:52:42;18.30;1.40
316;DHT22;14128;48.686;9.738;2022-07-10T07:55:09;18.30;1.40
316;DHT22;14128;48.686;9.738;2022-07-10T07:57:37;18.70;1.40
316;DHT22;14128;48.686;9.738;2022-07-10T08:00:05;19.20;1.40
316;DHT22;14128;48.686;9.738;2022-07-10T08:02:33;19.70;1.40
316;DHT22;14128;48.686;9.738;2022-07-10T08:05:00;20.10;1.40
316;DHT22;14128;48.686;9.738;2022-07-10T08:07:35;20.40;1.40
316;DHT22;14128;48.686;9.738;2022-07-10T08:10:03;20.10;1.40
316;DHT22;14128;48.686;9.738;2022-07-10T08:12:30;20.00;1.40
316;DHT22;14128;48.686;9.738;2022-07-10T08:14:57;19.80;1.40
316;DHT22;14128;48.686;9.738;2022-07-10T08:17:24;19.60;1.40
316;DHT22;14128;48.686;9.738;2022-07-10T08:19:51;19.70;1.40
316;DHT22;14128;48.686;9.738;2022-07-10T08:22:18;19.80;1.40
316;DHT22;14128;48.686;9.738;2022-07-10T08:24:46;19.40;1.40
316;DHT22;14128;48.686;9.738;2022-07-10T08:27:13;19.30;1.40
316;DHT22;14128;48.686;9.738;2022-07-10T08:29:41;19.50;1.40
316;DHT22;14128;48.686;9.738;2022-07-10T08:32:08;19.60;1.40
316;DHT22;14128;48.686;9.738;2022-07-10T08:34:36;19.70;1.40
316;DHT22;14128;48.686;9.738;2022-07-10T08:37:03;19.70;1.40
316;DHT22;14128;48.686;9.738;2022-07-10T08:39:30;19.50;1.40
316;DHT22;14128;48.686;9.738;2022-07-10T08:41:59;19.60;1.40
316;DHT22;14128;48.686;9.738;2022-07-10T08:44:26;19.80;1.40
316;DHT22;14128;48.686;9.738;2022-07-10T08:46:54;20.10;1.40
316;DHT22;14128;48.686;9.738;2022-07-10T08:49:27;20.10;1.40
316;DHT22;14128;48.686;9.738;2022-07-10T08:51:58;19.80;1.40
316;DHT22;14128;48.686;9.738;2022-07-10T08:54:27;19.40;1.40
316;DHT22;14128;48.686;9.738;2022-07-10T08:56:57;19.00;1.40
316;DHT22;14128;48.686;9.738;2022-07-10T08:59:25;18.80;1.40
316;DHT22;14128;48.686;9.738;2022-07-10T09:01:52;19.00;1.40
316;DHT22;14128;48.686;9.738;2022-07-10T09:04:21;19.30;1.40
316;DHT22;14128;48.686;9.738;2022-07-10T09:06:48;20.10;1.40
316;DHT22;14128;48.686;9.738;2022-07-10T09:09:15;20.40;1.40
316;DHT22;14128;48.686;9.738;2022-07-10T09:11:42;20.40;1.40
316;DHT22;14128;48.686;9.738;2022-07-10T09:14:14;20.20;1.40
316;DHT22;14128;48.686;9.738;2022-07-10T09:16:44;19.50;1.40
316;DHT22;14128;48.686;9.738;2022-07-10T09:19:16;19.10;1.40
316;DHT22;14128;48.686;9.738;2022-07-10T09:21:44;18.90;1.40
316;DHT22;14128;48.686;9.738;2022-07-10T09:24:11;18.70;1.40
316;DHT22;14128;48.686;9.738;2022-07-10T09:26:39;18.90;1.40
316;DHT22;14128;48.686;9.738;2022-07-10T09:29:07;19.10;1.40
316;DHT22;14128;48.686;9.738;2022-07-10T09:31:51;19.30;1.40
316;DHT22;14128;48.686;9.738;2022-07-10T09:34:34;19.80;1.40
316;DHT22;14128;48.686;9.738;2022-07-10T09:37:17;20.10;1.40
316;DHT22;14128;48.686;9.738;2022-07-10T09:39:55;20.50;1.40
316;DHT22;14128;48.686;9.738;2022-07-10T09:42:30;21.00;1.40
316;DHT22;14128;48.686;9.738;2022-07-10T09:45:17;21.40;1.40
316;DHT22;14128;48.686;9.738;2022-07-10T09:47:53;21.50;1.40
316;DHT22;14128;48.686;9.738;2022-07-10T09:50:23;20.80;1.40
316;DHT22;14128;48.686;9.738;2022-07-10T09:52:52;20.00;1.40
316;DHT22;14128;48.686;9.738;2022-07-10T09:55:21;19.60;1.40
316;DHT22;14128;48.686;9.738;2022-07-10T09:57:53;19.50;1.40
316;DHT22;14128;48.686;9.738;2022-07-10T10:00:23;19.40;1.40
316;DHT22;14128;48.686;9.738;2022-07-10T10:02:55;19.60;1.40
316;DHT22;14128;48.686;9.738;2022-07-10T10:05:30;20.30;1.40
316;DHT22;14128;48.686;9.738;2022-07-10T10:08:01;20.80;1.40
316;DHT22;14128;48.686;9.738;2022-07-10T10:10:32;20.60;1.40
316;DHT22;14128;48.686;9.738;2022-07-10T10:13:03;20.70;1.40
316;DHT22;14128;48.686;9.738;2022-07-10T10:15:35;20.80;1.40
316;DHT22;14128;48.686;9.738;2022-07-10T10:18:03;21.00;1.40
316;DHT22;14128;48.686;9.738;2022-07-10T10:20:32;20.90;1.40
316;DHT22;14128;48.686;9.738;2022-07-10T10:23:09;20.70;1.40
316;DHT22;14128;48.686;9.738;2022-07-10T10:25:38;20.40;1.40
316;DHT22;14128;48.686;9.738;2022-07-10T10:28:08;20.30;1.40
316;DHT22;14128;48.686;9.738;2022-07-10T10:30:37;20.30;1.40
316;DHT22;14128;48.686;9.738;2022-07-10T10:36:07;20.90;1.40
316;DHT22;14128;48.686;9.738;2022-07-10T10:39:01;21.50;1.40
316;DHT22;14128;48.686;9.738;2022-07-10T10:41:30;22.00;1.40
316;DHT22;14128;48.686;9.738;2022-07-10T10:44:28;21.50;1.40
316;DHT22;14128;48.686;9.738;2022-07-10T10:47:07;20.90;1.40
316;DHT22;14128;48.686;9.738;2022-07-10T10:49:54;20.80;1.40
316;DHT22;14128;48.686;9.738;2022-07-10T10:52:26;21.30;1.40
316;DHT22;14128;48.686;9.738;2022-07-10T10:55:03;21.30;1.40
316;DHT22;14128;48.686;9.738;2022-07-10T10:57:43;20.90;1.40
316;DHT22;14128;48.686;9.738;2022-07-10T11:00:29;20.80;1.40
316;DHT22;14128;48.686;9.738;2022-07-10T11:03:17;20.60;1.40
316;DHT22;14128;48.686;9.738;2022-07-10T11:05:45;20.80;1.40
316;DHT22;14128;48.686;9.738;2022-07-10T11:08:38;20.20;1.40
316;DHT22;14128;48.686;9.738;2022-07-10T11:11:39;20.30;1.40
316;DHT22;14128;48.686;9.738;2022-07-10T11:14:09;21.00;1.40
316;DHT22;14128;48.686;9.738;2022-07-10T11:16:45;21.60;1.40
316;DHT22;14128;48.686;9.738;2022-07-10T11:19:18;22.20;1.40
316;DHT22;14128;48.686;9.738;2022-07-10T11:21:46;22.50;1.40
316;DHT22;14128;48.686;9.738;2022-07-10T11:24:33;22.30;1.40
316;DHT22;14128;48.686;9.738;2022-07-10T11:27:08;21.60;1.40
316;DHT22;14128;48.686;9.738;2022-07-10T11:29:36;20.70;1.40
316;DHT22;14128;48.686;9.738;2022-07-10T11:32:05;20.40;1.40
316;DHT22;14128;48.686;9.738;2022-07-10T11:34:36;21.10;1.40
316;DHT22;14128;48.686;9.738;2022-07-10T11:37:03;21.80;1.40
316;DHT22;14128;48.686;9.738;2022-07-10T11:39:41;22.20;1.40
316;DHT22;14128;48.686;9.738;2022-07-10T11:42:08;22.50;1.40
316;DHT22;14128;48.686;9.738;2022-07-10T11:44:35;22.80;1.40
316;DHT22;14128;48.686;9.738;2022-07-10T11:47:03;22.30;1.40
316;DHT22;14128;48.686;9.738;2022-07-10T11:49:31;21.20;1.40
316;DHT22;14128;48.686;9.738;2022-07-10T11:52:01;21.00;1.40
316;DHT22;14128;48.686;9.738;2022-07-10T11:54:28;21.20;1.40
316;DHT22;14128;48.686;9.738;2022-07-10T11:57:05;20.70;1.40
316;DHT22;14128;48.686;9.738;2022-07-10T11:59:32;19.80;1.40
316;DHT22;14128;48.686;9.738;2022-07-10T12:01:59;19.70;1.40
316;DHT22;14128;48.686;9.738;2022-07-10T12:04:29;19.80;1.40
316;DHT22;14128;48.686;9.738;2022-07-10T12:06:57;20.20;1.40
316;DHT22;14128;48.686;9.738;2022-07-10T12:09:24;20.70;1.40
316;DHT22;14128;48.686;9.738;2022-07-10T12:12:03;21.10;1.40
316;DHT22;14128;48.686;9.738;2022-07-10T12:14:31;20.10;1.40
316;DHT22;14128;48.686;9.738;2022-07-10T12:16:59;19.70;1.40
316;DHT22;14128;48.686;9.738;2022-07-10T12:19:28;19.90;1.40
316;DHT22;14128;48.686;9.738;2022-07-10T12:21:56;20.10;1.40
316;DHT22;14128;48.686;9.738;2022-07-10T12:24:24;20.40;1.40
316;DHT22;14128;48.686;9.738;2022-07-10T12:26:52;20.90;1.40
316;DHT22;14128;48.686;9.738;2022-07-10T12:29:24;21.30;1.40
316;DHT22;14128;48.686;9.738;2022-07-10T12:31:52;21.60;1.40
316;DHT22;14128;48.686;9.738;2022-07-10T12:34:32;21.10;1.40
316;DHT22;14128;48.686;9.738;2022-07-10T12:37:06;20.60;1.40
316;DHT22;14128;48.686;9.738;2022-07-10T12:39:36;20.80;1.40
316;DHT22;14128;48.686;9.738;2022-07-10T12:42:05;20.90;1.40
316;DHT22;14128;48.686;9.738;2022-07-10T12:44:39;21.40;1.40
316;DHT22;14128;48.686;9.738;2022-07-10T12:47:07;22.00;1.40
316;DHT22;14128;48.686;9.738;2022-07-10T12:49:52;22.40;1.40
316;DHT22;14128;48.686;9.738;2022-07-10T12:52:20;22.80;1.40
316;DHT22;14128;48.686;9.738;2022-07-10T12:54:47;23.30;1.40
316;DHT22;14128;48.686;9.738;2022-07-10T12:57:14;23.40;1.40
316;DHT22;14128;48.686;9.738;2022-07-10T12:59:42;23.50;1.40
316;DHT22;14128;48.686;9.738;2022-07-10T13:02:17;23.50;1.40
316;DHT22;14128;48.686;9.738;2022-07-10T13:04:55;24.40;1.40
316;DHT22;14128;48.686;9.738;2022-07-10T13:07:29;25.80;1.40
316;DHT22;14128;48.686;9.738;2022-07-10T13:09:59;25.10;1.40
316;DHT22;14128;48.686;9.738;2022-07-10T13:12:26;24.00;1.40
316;DHT22;14128;48.686;9.738;2022-07-10T13:14:54;23.90;1.40
316;DHT22;14128;48.686;9.738;2022-07-10T13:17:21;24.20;1.40
316;DHT22;14128;48.686;9.738;2022-07-10T13:19:49;24.30;1.40
316;DHT22;14128;48.686;9.738;2022-07-10T13:22:16;24.40;1.40
316;DHT22;14128;48.686;9.738;2022-07-10T13:24:43;24.30;1.40
316;DHT22;14128;48.686;9.738;2022-07-10T13:27:10;24.50;1.40
316;DHT22;14128;48.686;9.738;2022-07-10T13:29:37;25.60;1.40
316;DHT22;14128;48.686;9.738;2022-07-10T13:32:06;25.80;1.40
316;DHT22;14128;48.686;9.738;2022-07-10T13:34:33;25.50;1.40
316;DHT22;14128;48.686;9.738;2022-07-10T13:37:01;25.30;1.40
316;DHT22;14128;48.686;9.738;2022-07-10T13:39:28;26.50;1.40
316;DHT22;14128;48.686;9.738;2022-07-10T13:41:55;27.10;1.40
316;DHT22;14128;48.686;9.738;2022-07-10T13:44:22;26.40;1.40
316;DHT22;14128;48.686;9.738;2022-07-10T13:46:49;26.80;1.40
316;DHT22;14128;48.686;9.738;2022-07-10T13:49:17;26.90;1.40
316;DHT22;14128;48.686;9.738;2022-07-10T13:51:44;27.10;1.40
316;DHT22;14128;48.686;9.738;2022-07-10T13:54:10;27.00;1.40
316;DHT22;14128;48.686;9.738;2022-07-10T13:56:37;28.80;1.40
316;DHT22;14128;48.686;9.738;2022-07-10T13:59:04;30.10;1.40
316;DHT22;14128;48.686;9.738;2022-07-10T14:01:31;30.30;1.40
316;DHT22;14128;48.686;9.738;2022-07-10T14:03:58;31.40;1.40
316;DHT22;14128;48.686;9.738;2022-07-10T14:06:26;31.70;1.40
316;DHT22;14128;48.686;9.738;2022-07-10T14:08:53;31.80;1.40
316;DHT22;14128;48.686;9.738;2022-07-10T14:11:20;32.20;1.40
316;DHT22;14128;48.686;9.738;2022-07-10T14:13:47;33.70;1.40
316;DHT22;14128;48.686;9.738;2022-07-10T14:16:13;33.60;1.40
316;DHT22;14128;48.686;9.738;2022-07-10T14:18:40;33.50;1.40
316;DHT22;14128;48.686;9.738;2022-07-10T14:21:10;33.90;1.40
316;DHT22;14128;48.686;9.738;2022-07-10T14:23:41;35.00;1.40
316;DHT22;14128;48.686;9.738;2022-07-10T14:26:09;36.20;1.40
316;DHT22;14128;48.686;9.738;2022-07-10T14:28:37;35.70;1.40
316;DHT22;14128;48.686;9.738;2022-07-10T14:31:05;32.80;1.40
316;DHT22;14128;48.686;9.738;2022-07-10T14:33:33;31.60;1.40
316;DHT22;14128;48.686;9.738;2022-07-10T14:36:00;31.90;1.40
316;DHT22;14128;48.686;9.738;2022-07-10T14:38:27;33.10;1.40
316;DHT22;14128;48.686;9.738;2022-07-10T14:40:56;34.80;1.40
316;DHT22;14128;48.686;9.738;2022-07-10T14:43:22;35.00;1.40
316;DHT22;14128;48.686;9.738;2022-07-10T14:45:49;35.20;1.40
316;DHT22;14128;48.686;9.738;2022-07-10T14:48:17;35.20;1.40
316;DHT22;14128;48.686;9.738;2022-07-10T14:50:43;36.50;1.40
316;DHT22;14128;48.686;9.738;2022-07-10T14:53:10;33.50;1.40
316;DHT22;14128;48.686;9.738;2022-07-10T14:55:37;34.90;1.40
316;DHT22;14128;48.686;9.738;2022-07-10T14:58:05;36.20;1.40
316;DHT22;14128;48.686;9.738;2022-07-10T15:00:32;35.00;1.40
316;DHT22;14128;48.686;9.738;2022-07-10T15:03:00;31.50;1.40
316;DHT22;14128;48.686;9.738;2022-07-10T15:05:27;34.10;1.40
316;DHT22;14128;48.686;9.738;2022-07-10T15:07:54;36.20;1.40
316;DHT22;14128;48.686;9.738;2022-07-10T15:10:21;37.30;1.40
316;DHT22;14128;48.686;9.738;2022-07-10T15:12:48;38.10;1.40
316;DHT22;14128;48.686;9.738;2022-07-10T15:15:16;39.60;1.40
316;DHT22;14128;48.686;9.738;2022-07-10T15:17:43;38.90;1.40
316;DHT22;14128;48.686;9.738;2022-07-10T15:20:11;39.50;1.40
316;DHT22;14128;48.686;9.738;2022-07-10T15:22:38;38.30;1.40
316;DHT22;14128;48.686;9.738;2022-07-10T15:25:06;37.90;1.40
316;DHT22;14128;48.686;9.738;2022-07-10T15:27:33;38.50;1.40
316;DHT22;14128;48.686;9.738;2022-07-10T15:30:00;38.40;1.40
316;DHT22;14128;48.686;9.738;2022-07-10T15:32:28;38.10;1.40
316;DHT22;14128;48.686;9.738;2022-07-10T15:34:55;38.00;1.40
316;DHT22;14128;48.686;9.738;2022-07-10T15:37:21;39.10;1.40
316;DHT22;14128;48.686;9.738;2022-07-10T15:39:48;39.30;1.40
316;DHT22;14128;48.686;9.738;2022-07-10T15:42:15;38.50;1.40
316;DHT22;14128;48.686;9.738;2022-07-10T15:44:42;37.60;1.40
316;DHT22;14128;48.686;9.738;2022-07-10T15:47:09;38.90;1.40
316;DHT22;14128;48.686;9.738;2022-07-10T15:49:38;40.10;1.40
316;DHT22;14128;48.686;9.738;2022-07-10T15:52:05;39.30;1.40
316;DHT22;14128;48.686;9.738;2022-07-10T15:54:32;38.20;1.40
316;DHT22;14128;48.686;9.738;2022-07-10T15:56:59;38.40;1.40
316;DHT22;14128;48.686;9.738;2022-07-10T15:59:27;38.50;1.40
316;DHT22;14128;48.686;9.738;2022-07-10T16:01:55;37.50;1.40
316;DHT22;14128;48.686;9.738;2022-07-10T16:04:23;37.80;1.40
316;DHT22;14128;48.686;9.738;2022-07-10T16:06:51;38.20;1.40
316;DHT22;14128;48.686;9.738;2022-07-10T16:09:19;38.80;1.40
316;DHT22;14128;48.686;9.738;2022-07-10T16:11:46;39.20;1.40
316;DHT22;14128;48.686;9.738;2022-07-10T16:14:13;39.40;1.40
316;DHT22;14128;48.686;9.738;2022-07-10T16:16:40;39.30;1.40
316;DHT22;14128;48.686;9.738;2022-07-10T16:19:07;38.70;1.40
316;DHT22;14128;48.686;9.738;2022-07-10T16:21:34;38.80;1.40
316;DHT22;14128;48.686;9.738;2022-07-10T16:24:03;37.30;1.40
316;DHT22;14128;48.686;9.738;2022-07-10T16:26:30;37.50;1.40
316;DHT22;14128;48.686;9.738;2022-07-10T16:28:58;38.00;1.40
316;DHT22;14128;48.686;9.738;2022-07-10T16:31:25;36.90;1.40